Time;durP1;ratioP1;P1;durP2;ratioP2;P2;SDS_P1;SDS_P2;PMS_P1;PMS_P2;Temp;Humidity;BMP_temperature;BMP_pressure;BME280_temperature;BME280_humidity;BME280_pressure;Samples;Min_cycle;Max_cycle;Signal;HPM_P1;HPM_P2
2023/08/10 00:02:17;;;;;;;7.05;3.40;;;;;;;20.11;63.34;98358.69;4424904;32;20145;-80
2023/08/10 00:04:45;;;;;;;6.93;3.45;;;;;;;19.61;65.14;98355.47;4425306;32;20120;-80
2023/08/10 00:07:11;;;;;;;7.45;3.47;;;;;;;19.68;65.56;98353.25;4425049;32;20410;-80
2023/08/10 00:09:38;;;;;;;8.60;3.45;;;;;;;19.74;65.54;98348.38;4424989;32;20165;-80
2023/08/10 00:12:06;;;;;;;6.57;3.17;;;;;;;19.78;65.78;98360.31;4425298;32;20093;-80
2023/08/10 00:14:33;;;;;;;6.85;2.95;;;;;;;20.20;64.83;98358.81;4425192;32;20568;-79
2023/08/10 00:17:00;;;;;;;6.32;3.03;;;;;;;20.32;64.09;98354.41;4424564;32;20120;-79
2023/08/10 00:19:27;;;;;;;9.45;3.03;;;;;;;21.05;60.93;98347.75;4411537;32;20475;-79
2023/08/10 00:21:54;;;;;;;6.80;3.05;;;;;;;20.91;61.92;98358.53;4409825;32;20164;-79
2023/08/10 00:24:21;;;;;;;6.22;3.00;;;;;;;20.93;62.02;98354.81;4409469;32;20077;-80
2023/08/10 00:26:48;;;;;;;5.35;2.80;;;;;;;21.20;60.95;98357.03;4409595;32;20149;-79
2023/08/10 00:29:16;;;;;;;5.70;3.03;;;;;;;20.76;62.91;98360.59;4409824;32;20117;-79
2023/08/10 00:31:43;;;;;;;8.65;3.20;;;;;;;20.27;65.26;98348.69;4409386;32;20149;-80
2023/08/10 00:34:10;;;;;;;7.62;3.30;;;;;;;20.44;64.58;98347.41;4409729;32;20077;-80
2023/08/10 00:36:37;;;;;;;6.35;3.00;;;;;;;20.76;63.68;98342.25;4409543;32;20461;-79
2023/08/10 00:39:04;;;;;;;5.78;3.00;;;;;;;20.61;63.68;98348.69;4409602;32;20098;-80
2023/08/10 00:41:31;;;;;;;6.22;2.97;;;;;;;21.15;61.89;98353.94;4408387;32;20100;-80
2023/08/10 00:43:58;;;;;;;6.97;3.12;;;;;;;21.25;61.38;98357.47;4409217;32;20098;-80
2023/08/10 00:46:25;;;;;;;7.30;2.85;;;;;;;20.75;62.55;98356.31;4409333;32;20116;-79
2023/08/10 00:48:53;;;;;;;6.05;3.22;;;;;;;20.45;63.18;98357.78;4409611;32;20121;-79
2023/08/10 00:51:19;;;;;;;7.28;3.28;;;;;;;20.37;63.52;98357.50;4409177;32;20103;-80
2023/08/10 00:53:46;;;;;;;7.28;3.37;;;;;;;20.57;63.28;98344.66;4409592;32;20548;-79
2023/08/10 00:56:14;;;;;;;8.30;3.58;;;;;;;21.14;61.15;98343.56;4409323;32;20575;-79
2023/08/10 00:58:41;;;;;;;5.65;3.25;;;;;;;20.92;62.00;98344.47;4407895;32;20695;-79
2023/08/10 01:01:08;;;;;;;6.62;2.87;;;;;;;21.35;60.84;98337.44;4409368;32;20162;-79
2023/08/10 01:03:35;;;;;;;7.05;3.33;;;;;;;21.33;59.60;98343.78;4408169;32;20136;-79
2023/08/10 01:06:49;;;;;;;7.20;3.45;;;;;;;20.99;60.61;98343.84;4410692;32;20095;-80
2023/08/10 01:09:28;;;;;;;5.68;3.00;;;;;;;21.04;61.03;98343.47;4398219;32;20105;-80
2023/08/10 01:12:17;;;;;;;6.65;3.30;;;;;;;21.48;59.97;98346.91;4409891;32;20157;-80
2023/08/10 01:15:13;;;;;;;7.03;3.20;;;;;;;21.17;60.91;98352.03;4410020;32;20078;-79
2023/08/10 01:17:51;;;;;;;6.80;3.40;;;;;;;20.88;62.31;98346.50;4398048;32;20101;-79
2023/08/10 01:20:22;;;;;;;6.68;3.33;;;;;;;21.14;61.97;98344.41;4409596;32;20106;-80
2023/08/10 01:23:13;;;;;;;7.20;3.50;;;;;;;21.60;60.94;98354.63;4409916;32;20435;-79
2023/08/10 01:25:42;;;;;;;5.97;3.28;;;;;;;21.63;60.66;98361.41;4411012;32;20149;-79
2023/08/10 01:28:12;;;;;;;6.93;3.60;;;;;;;20.76;63.20;98355.34;4410811;32;20130;-80
2023/08/10 01:30:44;;;;;;;6.30;3.00;;;;;;;20.77;63.70;98357.03;4411198;32;20094;-80
2023/08/10 01:33:11;;;;;;;7.45;3.30;;;;;;;20.14;67.49;98358.44;4409599;32;20097;-80
2023/08/10 01:35:39;;;;;;;8.52;3.42;;;;;;;19.07;73.86;98354.16;4409778;32;20097;-79
2023/08/10 01:38:06;;;;;;;8.00;3.20;;;;;;;18.90;76.44;98351.09;4411014;32;20162;-79
2023/08/10 01:40:33;;;;;;;8.13;4.30;;;;;;;18.94;75.77;98353.38;4410712;32;20468;-80
2023/08/10 01:43:02;;;;;;;7.60;3.40;;;;;;;19.41;74.11;98361.31;4410897;32;20090;-79
2023/08/10 01:45:29;;;;;;;7.20;3.30;;;;;;;20.66;67.86;98352.63;4410874;32;20353;-79
2023/08/10 01:48:25;;;;;;;6.40;3.30;;;;;;;21.11;64.85;98356.94;4410610;32;20098;-80
2023/08/10 01:50:52;;;;;;;8.98;3.33;;;;;;;21.50;62.57;98353.72;4410136;32;20099;-80
2023/08/10 01:53:27;;;;;;;9.35;3.17;;;;;;;20.90;64.63;98360.34;4409789;32;20104;-80
2023/08/10 01:55:55;;;;;;;7.60;2.90;;;;;;;21.14;62.81;98359.31;4409374;32;20082;-80
2023/08/10 01:58:23;;;;;;;6.10;2.90;;;;;;;20.77;64.44;98354.41;4410809;32;20109;-80
2023/08/10 02:00:51;;;;;;;7.50;3.33;;;;;;;21.36;62.74;98362.72;4409653;32;20120;-80
2023/08/10 02:03:18;;;;;;;6.00;3.00;;;;;;;21.12;63.54;98369.94;4409695;32;20085;-79
2023/08/10 02:05:45;;;;;;;6.40;3.00;;;;;;;20.30;67.17;98364.16;4409510;32;20164;-79
2023/08/10 02:08:13;;;;;;;7.50;3.03;;;;;;;20.84;65.60;98360.84;4410629;32;20109;-80
2023/08/10 02:10:39;;;;;;;6.90;3.03;;;;;;;20.57;65.30;98355.97;4410864;32;20459;-79
2023/08/10 02:13:06;;;;;;;8.05;3.35;;;;;;;20.84;65.83;98358.22;4410798;32;20089;-79
2023/08/10 02:15:33;;;;;;;10.48;3.17;;;;;;;20.83;64.67;98358.31;4409781;32;20145;-80
2023/08/10 02:18:00;;;;;;;6.25;2.97;;;;;;;20.83;64.67;98355.69;4409616;32;20110;-79
2023/08/10 02:20:27;;;;;;;6.05;3.05;;;;;;;20.43;66.15;98356.22;4416712;32;20093;-79
2023/08/10 02:22:55;;;;;;;7.53;3.28;;;;;;;20.10;67.64;98360.47;4425539;32;20530;-80
2023/08/10 02:25:22;;;;;;;8.55;3.40;;;;;;;20.67;65.81;98361.31;4425881;32;20073;-79
2023/08/10 02:27:52;;;;;;;7.68;3.35;;;;;;;21.17;63.57;98362.53;4426017;32;20102;-79
2023/08/10 02:30:19;;;;;;;9.00;3.08;;;;;;;20.82;64.69;98364.50;4425729;32;20124;-80
2023/08/10 02:32:47;;;;;;;6.57;3.00;;;;;;;20.93;64.75;98361.87;4412193;32;20120;-80
2023/08/10 02:35:14;;;;;;;7.80;3.22;;;;;;;20.89;64.64;98365.69;4425799;32;20093;-80
2023/08/10 02:37:41;;;;;;;8.40;3.22;;;;;;;20.71;65.28;98354.87;4425535;32;20102;-80
2023/08/10 02:40:11;;;;;;;6.45;3.12;;;;;;;20.93;65.01;98354.81;4425978;32;20437;-80
2023/08/10 02:42:39;;;;;;;9.30;2.97;;;;;;;21.01;64.75;98360.31;4425917;32;20143;-80
2023/08/10 02:45:07;;;;;;;8.43;3.15;;;;;;;21.71;61.72;98363.41;4425516;32;20104;-80
2023/08/10 02:47:35;;;;;;;7.30;3.20;;;;;;;20.55;66.45;98360.50;4425702;32;20082;-79
2023/08/10 02:50:05;;;;;;;5.68;2.92;;;;;;;21.01;65.35;98360.31;4425535;32;20134;-80
2023/08/10 02:52:32;;;;;;;7.60;2.70;;;;;;;21.89;61.07;98348.72;4425831;32;20082;-79
2023/08/10 02:54:59;;;;;;;6.43;2.58;;;;;;;21.83;60.59;98370.25;4425759;32;20103;-79
2023/08/10 02:57:26;;;;;;;6.47;2.67;;;;;;;21.47;61.56;98368.88;4425381;32;20145;-80
2023/08/10 02:59:53;;;;;;;7.68;3.08;;;;;;;21.56;61.16;98365.50;4425812;32;20409;-79
2023/08/10 03:02:20;;;;;;;6.95;3.10;;;;;;;21.21;62.81;98370.97;4425830;32;20173;-79
2023/08/10 03:04:47;;;;;;;6.80;3.15;;;;;;;20.48;65.47;98367.16;4425381;32;20073;-80
2023/08/10 03:07:14;;;;;;;7.28;2.90;;;;;;;21.08;64.00;98376.41;4425592;32;20125;-79
2023/08/10 03:09:41;;;;;;;6.37;3.00;;;;;;;20.96;64.49;98374.75;4425808;32;20496;-79
2023/08/10 03:12:09;;;;;;;8.00;2.87;;;;;;;20.50;66.61;98381.81;4425305;32;20104;-80
2023/08/10 03:14:36;;;;;;;7.80;2.95;;;;;;;20.93;64.82;98367.94;4425649;32;20082;-79
2023/08/10 03:17:04;;;;;;;6.97;3.08;;;;;;;20.38;67.95;98380.13;4411740;32;20095;-79
2023/08/10 03:19:32;;;;;;;6.47;3.03;;;;;;;20.21;68.54;98370.13;4425242;32;20098;-80
2023/08/10 03:21:59;;;;;;;5.78;2.58;;;;;;;20.54;67.94;98376.38;4425560;32;20413;-80
2023/08/10 03:24:26;;;;;;;7.78;2.90;;;;;;;20.66;66.72;98373.59;4425530;32;20082;-80
2023/08/10 03:26:53;;;;;;;6.12;2.87;;;;;;;20.58;67.25;98375.16;4425110;32;20128;-80
2023/08/10 03:29:20;;;;;;;6.60;2.85;;;;;;;21.18;64.89;98374.69;4425811;32;20165;-80
2023/08/10 03:31:47;;;;;;;6.93;2.95;;;;;;;20.46;67.33;98371.72;4425593;32;20367;-79
2023/08/10 03:34:14;;;;;;;6.40;2.70;;;;;;;20.78;66.66;98374.41;4425170;32;20499;-80
2023/08/10 03:36:41;;;;;;;5.93;2.55;;;;;;;20.14;68.61;98374.16;4425223;32;20128;-80
2023/08/10 03:39:08;;;;;;;8.90;2.80;;;;;;;19.55;71.20;98375.06;4425209;32;20470;-80
2023/08/10 03:41:35;;;;;;;5.03;2.30;;;;;;;18.80;74.75;98366.59;4425445;32;20101;-80
2023/08/10 03:44:02;;;;;;;5.25;2.60;;;;;;;18.11;78.13;98373.16;4425395;32;20163;-79
2023/08/10 03:46:29;;;;;;;6.57;2.30;;;;;;;18.87;75.25;98374.84;4425013;32;20150;-80
2023/08/10 03:48:56;;;;;;;4.65;2.20;;;;;;;19.05;75.05;98378.75;4425517;32;20094;-80
2023/08/10 03:51:23;;;;;;;5.62;2.30;;;;;;;19.16;74.16;98381.44;4425442;32;20081;-80
2023/08/10 03:53:50;;;;;;;7.62;2.50;;;;;;;19.26;73.75;98385.06;4425093;32;20168;-80
2023/08/10 03:56:20;;;;;;;5.87;2.40;;;;;;;18.95;75.18;98389.03;4425271;32;20101;-79
2023/08/10 03:58:47;;;;;;;4.53;2.17;;;;;;;19.18;72.82;98389.16;4425296;32;20126;-79
2023/08/10 04:01:13;;;;;;;4.68;2.10;;;;;;;18.94;75.71;98378.69;4425012;32;20096;-80
2023/08/10 04:03:41;;;;;;;5.45;1.92;;;;;;;19.13;74.63;98386.88;4425093;32;20086;-79
2023/08/10 04:06:08;;;;;;;4.25;2.20;;;;;;;18.76;76.46;98386.06;4424766;32;20124;-79
2023/08/10 04:08:35;;;;;;;4.18;2.05;;;;;;;18.85;74.86;98379.34;4424781;32;20101;-80
2023/08/10 04:11:02;;;;;;;5.62;2.10;;;;;;;19.54;72.57;98378.63;4424686;32;20168;-79
2023/08/10 04:13:29;;;;;;;5.12;1.95;;;;;;;19.47;72.47;98380.03;4424974;32;20161;-79
2023/08/10 04:15:56;;;;;;;4.50;1.90;;;;;;;20.08;68.82;98380.69;4424815;32;20173;-79
2023/08/10 04:18:23;;;;;;;3.83;1.85;;;;;;;20.77;67.19;98378.00;4425266;32;20101;-79
2023/08/10 04:20:50;;;;;;;3.80;1.80;;;;;;;21.46;63.40;98382.97;4424885;32;20101;-79
2023/08/10 04:23:19;;;;;;;4.35;2.00;;;;;;;22.20;60.58;98392.50;4424783;32;20555;-80
2023/08/10 04:25:46;;;;;;;6.00;2.10;;;;;;;22.43;58.55;98389.69;4424853;32;20102;-80
2023/08/10 04:28:13;;;;;;;4.55;1.90;;;;;;;22.61;58.35;98392.56;4424836;32;20102;-81
2023/08/10 04:30:40;;;;;;;4.75;2.00;;;;;;;23.23;56.63;98386.22;4424981;32;20100;-79
2023/08/10 04:33:07;;;;;;;2.83;1.60;;;;;;;23.37;55.13;98377.91;4425124;32;20604;-79
2023/08/10 04:35:34;;;;;;;5.05;1.70;;;;;;;23.12;56.27;98381.09;4424648;32;20376;-80
2023/08/10 04:38:01;;;;;;;3.37;1.77;;;;;;;23.00;56.54;98389.09;4424888;32;20101;-80
2023/08/10 04:40:29;;;;;;;3.50;1.80;;;;;;;22.55;58.58;98393.94;4424444;32;20100;-80
2023/08/10 04:42:58;;;;;;;3.55;1.70;;;;;;;22.32;58.19;98392.41;4424531;32;20363;-80
2023/08/10 04:45:25;;;;;;;3.97;1.45;;;;;;;23.13;56.43;98396.75;4424784;32;20110;-80
2023/08/10 04:47:52;;;;;;;3.60;1.83;;;;;;;24.63;52.51;98390.94;4411242;32;20166;-80
2023/08/10 04:50:19;;;;;;;4.07;1.80;;;;;;;25.71;49.20;98398.88;4424382;32;20086;-80
2023/08/10 04:52:46;;;;;;;2.80;1.60;;;;;;;27.07;45.95;98400.87;4424857;32;20125;-80
2023/08/10 04:55:13;;;;;;;3.78;1.73;;;;;;;27.89;43.73;98404.50;4424628;32;20459;-80
2023/08/10 04:57:40;;;;;;;5.97;1.60;;;;;;;27.80;43.21;98408.13;4424460;32;20098;-80
2023/08/10 05:00:14;;;;;;;3.25;1.55;;;;;;;28.30;42.10;98405.31;4424707;32;20420;-80
2023/08/10 05:02:41;;;;;;;3.72;1.70;;;;;;;28.03;42.42;98411.75;4424704;32;20093;-80
2023/08/10 05:05:09;;;;;;;3.65;1.98;;;;;;;27.58;43.62;98415.72;4424092;32;20160;-80
2023/08/10 05:07:37;;;;;;;4.62;1.87;;;;;;;27.62;44.14;98422.34;4424495;32;20157;-80
2023/08/10 05:10:06;;;;;;;5.35;2.42;;;;;;;28.21;42.37;98425.69;4410796;32;20147;-79
2023/08/10 05:12:35;;;;;;;2.50;1.50;;;;;;;28.44;42.27;98430.31;4424058;32;20100;-79
2023/08/10 05:15:03;;;;;;;4.10;1.40;;;;;;;29.46;39.93;98431.25;4410413;32;20157;-79
2023/08/10 05:17:30;;;;;;;3.47;1.50;;;;;;;29.50;40.04;98437.87;4424144;32;20101;-80
2023/08/10 05:19:57;;;;;;;3.30;1.37;;;;;;;29.63;40.23;98440.78;4424024;32;20097;-79
2023/08/10 05:22:25;;;;;;;2.70;1.40;;;;;;;29.64;40.10;98440.59;4424148;32;20108;-80
2023/08/10 05:24:52;;;;;;;4.28;1.50;;;;;;;28.80;41.10;98442.12;4423735;32;20137;-80
2023/08/10 05:27:19;;;;;;;3.47;1.55;;;;;;;28.66;41.50;98450.00;4424074;32;20166;-82
2023/08/10 05:29:46;;;;;;;2.47;1.45;;;;;;;29.66;39.43;98445.72;4424212;32;20160;-82
2023/08/10 05:32:12;;;;;;;3.47;1.25;;;;;;;30.07;39.49;98443.59;4423829;32;20086;-83
2023/08/10 05:34:40;;;;;;;2.50;1.40;;;;;;;29.31;40.56;98444.44;4424005;32;20090;-82
2023/08/10 05:37:07;;;;;;;3.25;1.25;;;;;;;30.21;39.45;98447.31;4423783;32;20489;-82
2023/08/10 05:39:34;;;;;;;2.30;1.30;;;;;;;30.97;37.78;98450.69;4423620;32;20153;-83
2023/08/10 05:42:01;;;;;;;2.33;1.48;;;;;;;30.57;37.86;98446.63;4424091;32;20575;-82
2023/08/10 05:44:28;;;;;;;2.35;1.35;;;;;;;28.75;41.54;98449.81;4423877;32;20090;-82
2023/08/10 05:46:55;;;;;;;3.75;1.62;;;;;;;27.96;43.23;98446.06;4423238;32;20093;-84
2023/08/10 05:49:24;;;;;;;2.17;1.35;;;;;;;27.73;43.80;98447.72;4418426;32;20114;-84
2023/08/10 05:51:53;;;;;;;2.60;1.33;;;;;;;28.95;41.55;98460.06;4423228;32;20089;-83
2023/08/10 05:54:20;;;;;;;5.15;1.50;;;;;;;28.55;42.40;98453.84;4424041;32;20455;-83
2023/08/10 05:56:47;;;;;;;4.05;1.60;;;;;;;26.91;46.22;98453.75;4424643;32;20141;-82
2023/08/10 05:59:14;;;;;;;2.60;1.37;;;;;;;26.64;46.39;98460.87;4424898;32;20419;-83
2023/08/10 06:01:43;;;;;;;2.42;1.30;;;;;;;25.52;49.25;98458.00;4424711;32;20081;-83
2023/08/10 06:04:10;;;;;;;2.28;1.37;;;;;;;25.89;48.19;98452.56;4424599;32;20085;-83
2023/08/10 06:06:37;;;;;;;4.25;1.50;;;;;;;25.54;49.14;98457.84;4423853;32;20519;-83
2023/08/10 06:09:07;;;;;;;4.35;1.60;;;;;;;24.90;51.74;98459.56;4424536;32;20103;-83
2023/08/10 06:11:34;;;;;;;5.90;1.83;;;;;;;25.09;51.06;98461.28;4425084;32;20161;-81
2023/08/10 06:14:15;;;;;;;2.67;1.70;;;;;;;24.33;52.90;98457.94;4424426;32;20098;-80
2023/08/10 06:16:42;;;;;;;3.08;1.60;;;;;;;24.20;53.42;98459.03;4424197;32;20171;-83
2023/08/10 06:19:09;;;;;;;3.15;1.50;;;;;;;24.85;52.20;98464.44;4424781;32;20085;-83
2023/08/10 06:21:36;;;;;;;3.78;1.60;;;;;;;25.20;50.86;98450.56;4424645;32;20100;-83
2023/08/10 06:24:06;;;;;;;5.78;1.70;;;;;;;25.36;50.64;98452.53;4424875;32;20082;-84
2023/08/10 06:26:34;;;;;;;4.55;1.60;;;;;;;25.47;50.60;98457.59;4424324;32;20113;-84
2023/08/10 06:29:02;;;;;;;4.18;1.80;;;;;;;24.13;53.42;98459.72;4424103;32;20507;-84
2023/08/10 06:31:30;;;;;;;3.10;1.58;;;;;;;23.98;53.91;98459.34;4425096;32;20112;-81
2023/08/10 06:33:57;;;;;;;4.78;1.60;;;;;;;24.99;52.41;98457.81;4425395;32;20082;-81
2023/08/10 06:36:26;;;;;;;3.35;1.60;;;;;;;25.83;49.75;98450.53;4423790;32;20108;-81
2023/08/10 06:38:54;;;;;;;8.25;1.75;;;;;;;25.47;51.35;98454.13;4424513;32;20094;-82
2023/08/10 06:41:21;;;;;;;3.17;1.50;;;;;;;26.24;49.79;98458.78;4425628;32;20113;-81
2023/08/10 06:43:49;;;;;;;4.53;1.75;;;;;;;26.15;48.91;98459.69;4424772;32;20090;-84
2023/08/10 06:46:16;;;;;;;3.50;1.58;;;;;;;26.53;46.75;98461.16;4427322;32;20106;-83
2023/08/10 06:48:44;;;;;;;3.72;1.40;;;;;;;26.32;48.65;98469.44;4426386;32;20061;-83
2023/08/10 06:51:11;;;;;;;3.50;1.60;;;;;;;26.52;46.67;98470.09;4427121;32;20117;-84
2023/08/10 06:53:38;;;;;;;4.22;1.70;;;;;;;26.29;48.20;98479.50;4425066;32;20097;-83
2023/08/10 06:56:05;;;;;;;3.15;1.67;;;;;;;26.97;46.59;98479.59;4423532;32;20138;-83
2023/08/10 06:58:33;;;;;;;3.03;1.50;;;;;;;26.38;47.62;98478.59;4424450;32;20090;-84
2023/08/10 07:01:03;;;;;;;2.75;1.50;;;;;;;26.44;48.39;98478.78;4424790;32;20440;-83
2023/08/10 07:03:30;;;;;;;2.62;1.42;;;;;;;27.36;44.63;98479.94;4410887;32;20077;-83
2023/08/10 07:05:57;;;;;;;2.40;1.40;;;;;;;26.80;45.83;98481.34;4425704;32;20112;-83
2023/08/10 07:08:24;;;;;;;4.30;1.50;;;;;;;27.07;46.79;98483.81;4427197;32;20452;-81
2023/08/10 07:10:51;;;;;;;3.12;1.70;;;;;;;27.16;46.18;98491.78;4434140;32;20058;-81
2023/08/10 07:13:18;;;;;;;3.05;1.55;;;;;;;27.36;44.68;98491.37;4432755;32;20066;-81
2023/08/10 07:15:46;;;;;;;3.97;1.55;;;;;;;27.65;43.21;98496.28;4421873;32;20141;-81
2023/08/10 07:18:17;;;;;;;3.65;1.60;;;;;;;28.08;42.18;98499.63;4434150;32;20072;-80
2023/08/10 07:20:44;;;;;;;3.17;1.55;;;;;;;28.41;42.20;98500.50;4425440;32;20081;-81
2023/08/10 07:23:11;;;;;;;2.87;1.30;;;;;;;28.66;41.25;98508.41;4422564;32;20413;-83
2023/08/10 07:25:40;;;;;;;3.80;1.60;;;;;;;27.09;43.45;98496.88;4417140;32;20101;-77
2023/08/10 07:28:10;;;;;;;2.40;1.60;;;;;;;27.99;42.73;98500.63;4421382;32;20169;-77
2023/08/10 07:30:37;;;;;;;2.15;1.20;;;;;;;28.81;40.08;98504.88;4422747;32;20167;-77
2023/08/10 07:33:04;;;;;;;2.42;1.30;;;;;;;29.01;37.55;98493.88;4423655;32;20445;-77
2023/08/10 07:35:31;;;;;;;2.62;1.40;;;;;;;28.97;38.58;98498.72;4421051;32;20105;-77
2023/08/10 07:37:58;;;;;;;1.87;1.20;;;;;;;28.83;38.48;98494.09;4422552;32;20569;-77
2023/08/10 07:40:26;;;;;;;2.30;1.30;;;;;;;29.54;38.48;98497.66;4422536;32;20127;-78
2023/08/10 07:42:53;;;;;;;2.22;1.40;;;;;;;28.49;40.34;98499.63;4423329;32;20094;-78
2023/08/10 07:45:20;;;;;;;1.62;1.10;;;;;;;28.38;38.11;98489.34;4422287;32;20081;-77
2023/08/10 07:47:47;;;;;;;2.72;1.20;;;;;;;26.09;39.33;98486.78;4423098;32;20093;-77
2023/08/10 07:50:15;;;;;;;2.87;1.40;;;;;;;25.39;39.87;98481.28;4422472;32;20465;-76
2023/08/10 07:52:42;;;;;;;0.70;0.60;;;;;;;24.57;40.68;98495.22;4422842;32;20094;-77
2023/08/10 07:55:10;;;;;;;3.45;1.50;;;;;;;23.78;41.07;98476.94;4422840;32;20564;-77
2023/08/10 07:57:36;;;;;;;2.22;1.02;;;;;;;23.95;42.40;98496.53;4422761;32;20172;-77
2023/08/10 08:00:05;;;;;;;2.00;1.10;;;;;;;24.63;39.68;98485.91;4422450;32;20201;-77
2023/08/10 08:02:33;;;;;;;3.20;1.20;;;;;;;25.34;37.25;98499.37;4423088;32;20361;-76
2023/08/10 08:05:00;;;;;;;3.03;1.30;;;;;;;25.63;36.27;98504.50;4422287;32;20102;-78
2023/08/10 08:07:30;;;;;;;4.22;1.20;;;;;;;24.80;38.27;98507.09;4422600;32;20090;-77
2023/08/10 08:09:58;;;;;;;2.78;1.10;;;;;;;24.78;37.88;98508.22;4422932;32;20089;-77
2023/08/10 08:12:26;;;;;;;2.30;1.20;;;;;;;24.11;38.14;98502.06;4422906;32;20101;-78
2023/08/10 08:14:56;;;;;;;1.87;0.90;;;;;;;25.28;36.97;98513.16;4407031;32;20127;-78
2023/08/10 08:17:25;;;;;;;3.28;1.33;;;;;;;24.40;38.31;98499.41;4422657;32;20172;-78
2023/08/10 08:19:56;;;;;;;2.78;1.30;;;;;;;23.98;39.01;98504.16;4422199;32;20077;-78
2023/08/10 08:22:24;;;;;;;3.28;1.20;;;;;;;23.82;41.12;98495.94;4409452;32;20121;-77
2023/08/10 08:24:52;;;;;;;4.03;1.45;;;;;;;24.42;40.09;98502.75;4421952;32;20160;-77
2023/08/10 08:27:19;;;;;;;1.73;1.20;;;;;;;25.45;38.99;98511.56;4422315;32;20147;-77
2023/08/10 08:29:46;;;;;;;2.70;1.30;;;;;;;26.05;37.75;98507.41;4422719;32;20130;-77
2023/08/10 08:32:13;;;;;;;4.35;1.45;;;;;;;25.13;38.61;98518.12;4423015;32;20519;-76
2023/08/10 08:35:00;;;;;;;2.28;1.23;;;;;;;25.90;38.49;98514.19;4421384;32;20148;-76
2023/08/10 08:37:27;;;;;;;2.12;1.30;;;;;;;27.29;37.45;98511.53;4422589;32;20149;-77
2023/08/10 08:39:54;;;;;;;6.30;1.45;;;;;;;28.18;35.30;98512.75;4422553;32;20124;-76
2023/08/10 08:42:21;;;;;;;1.33;1.00;;;;;;;27.68;35.13;98518.97;4422493;32;20089;-77
2023/08/10 08:44:49;;;;;;;2.10;1.20;;;;;;;28.14;33.66;98508.75;4421704;32;20117;-76
2023/08/10 08:47:16;;;;;;;2.08;1.40;;;;;;;28.72;33.73;98515.72;4422335;32;20164;-76
2023/08/10 08:49:44;;;;;;;3.72;1.70;;;;;;;27.91;35.11;98519.19;4421794;32;20384;-77
2023/08/10 08:52:12;;;;;;;2.08;1.20;;;;;;;27.61;35.36;98523.22;4409177;32;20140;-76
2023/08/10 08:54:39;;;;;;;2.05;1.15;;;;;;;26.96;35.74;98518.47;4408040;32;20121;-76
2023/08/10 08:57:06;;;;;;;2.60;1.40;;;;;;;27.09;36.22;98515.41;4421557;32;20117;-77
2023/08/10 08:59:33;;;;;;;3.50;1.50;;;;;;;27.67;35.64;98512.84;4421915;32;20129;-76
2023/08/10 09:02:01;;;;;;;3.10;1.37;;;;;;;27.42;35.67;98523.50;4422027;32;20105;-77
2023/08/10 09:04:43;;;;;;;3.08;1.40;;;;;;;28.05;35.49;98523.00;4421968;32;20090;-76
2023/08/10 09:07:12;;;;;;;2.97;1.40;;;;;;;28.62;33.99;98525.69;4421347;32;20157;-75
2023/08/10 09:09:39;;;;;;;3.80;1.40;;;;;;;28.93;33.66;98528.47;4421050;32;20459;-76
2023/08/10 09:12:41;;;;;;;2.30;1.40;;;;;;;28.27;35.92;98525.00;4422449;32;20109;-77
2023/08/10 09:15:10;;;;;;;2.83;1.48;;;;;;;29.37;33.89;98528.78;4344974;33;20171;-77
2023/08/10 09:17:43;;;;;;;3.50;1.33;;;;;;;27.93;35.69;98531.28;4408287;32;20112;-76
2023/08/10 09:20:17;;;;;;;2.28;1.33;;;;;;;27.74;35.74;98523.59;4422146;32;20078;-76
2023/08/10 09:22:45;;;;;;;3.60;1.60;;;;;;;28.05;34.20;98520.34;4423168;32;20125;-76
2023/08/10 09:25:12;;;;;;;2.42;1.40;;;;;;;27.78;35.35;98532.09;4422787;32;20094;-76
2023/08/10 09:27:39;;;;;;;2.70;1.40;;;;;;;29.06;32.75;98524.25;4424798;32;20168;-77
2023/08/10 09:30:08;;;;;;;1.90;1.30;;;;;;;29.47;33.42;98529.41;4423828;32;20116;-76
2023/08/10 09:32:35;;;;;;;3.28;1.40;;;;;;;28.84;33.53;98537.41;4425272;32;20143;-76
2023/08/10 09:35:03;;;;;;;3.35;1.45;;;;;;;28.64;30.80;98529.81;4410932;32;20116;-76
2023/08/10 09:37:32;;;;;;;2.97;1.40;;;;;;;29.69;32.23;98530.50;4424318;32;20535;-76
2023/08/10 09:40:07;;;;;;;2.75;1.60;;;;;;;28.81;34.45;98538.56;4424054;32;20167;-76
2023/08/10 09:42:34;;;;;;;7.95;3.20;;;;;;;27.74;33.46;98528.91;4425037;32;20191;-75
2023/08/10 09:45:08;;;;;;;3.08;1.50;;;;;;;28.26;34.27;98536.59;4424304;32;20094;-75
2023/08/10 09:47:39;;;;;;;2.85;1.40;;;;;;;28.15;31.46;98535.09;4425011;32;20455;-75
2023/08/10 09:50:14;;;;;;;2.37;1.40;;;;;;;29.03;32.29;98537.03;4424221;32;20094;-75
2023/08/10 09:52:42;;;;;;;4.68;1.52;;;;;;;28.64;35.67;98526.34;4411162;32;20098;-76
2023/08/10 09:55:10;;;;;;;1.90;1.20;;;;;;;28.30;34.44;98532.66;4424681;32;20137;-75
2023/08/10 09:57:44;;;;;;;2.37;1.33;;;;;;;28.50;33.72;98533.16;4411376;32;20199;-75
2023/08/10 10:00:18;;;;;;;2.30;1.25;;;;;;;29.18;32.31;98530.03;4424027;32;20093;-75
2023/08/10 10:02:46;;;;;;;2.58;1.30;;;;;;;29.72;31.33;98543.44;4424791;32;20527;-75
2023/08/10 10:05:21;;;;;;;3.12;1.20;;;;;;;29.20;29.34;98536.00;4424084;32;20158;-75
2023/08/10 10:08:06;;;;;;;2.47;1.20;;;;;;;29.05;30.05;98530.59;4424933;32;20128;-75
2023/08/10 10:10:35;;;;;;;2.00;1.30;;;;;;;28.02;31.17;98531.28;4424117;32;20141;-75
2023/08/10 10:13:07;;;;;;;2.95;1.52;;;;;;;27.54;30.70;98531.00;4424543;32;20090;-75
2023/08/10 10:15:41;;;;;;;4.07;1.30;;;;;;;27.75;32.10;98519.97;4424545;32;20101;-75
2023/08/10 10:18:09;;;;;;;2.35;1.08;;;;;;;26.00;35.46;98522.06;4424846;32;20094;-75
2023/08/10 10:20:43;;;;;;;1.62;1.10;;;;;;;26.59;31.62;98525.88;4409743;32;20086;-75
2023/08/10 10:23:17;;;;;;;2.75;1.40;;;;;;;26.77;32.97;98516.88;4424823;32;20167;-76
2023/08/10 10:25:56;;;;;;;4.57;1.40;;;;;;;26.36;35.48;98526.31;4424472;32;20102;-76
2023/08/10 10:28:35;;;;;;;3.65;1.40;;;;;;;26.68;33.04;98532.84;4424312;32;20423;-75
2023/08/10 10:31:09;;;;;;;2.67;1.27;;;;;;;26.42;32.98;98520.47;4424317;32;20090;-75
2023/08/10 10:33:54;;;;;;;2.00;1.20;;;;;;;26.33;33.27;98513.41;4424560;32;20108;-75
2023/08/10 10:36:21;;;;;;;3.53;1.40;;;;;;;25.95;32.24;98522.53;4423722;32;20093;-75
2023/08/10 10:38:56;;;;;;;2.70;1.25;;;;;;;25.59;33.99;98513.69;4423774;32;20097;-75
2023/08/10 10:41:31;;;;;;;1.80;1.17;;;;;;;25.81;33.60;98521.22;4424188;32;20093;-75
2023/08/10 10:43:59;;;;;;;2.83;1.25;;;;;;;27.02;31.85;98520.53;4424822;32;20100;-75
2023/08/10 10:46:32;;;;;;;1.80;1.10;;;;;;;27.36;32.03;98519.69;4423929;32;20097;-75
2023/08/10 10:49:00;;;;;;;2.17;1.20;;;;;;;27.43;32.10;98519.84;4423644;32;20160;-75
2023/08/10 10:51:29;;;;;;;1.77;1.20;;;;;;;26.86;31.72;98515.09;4424099;32;20509;-75
2023/08/10 10:53:57;;;;;;;2.40;1.37;;;;;;;26.39;32.20;98512.84;4424603;32;20167;-75
2023/08/10 10:56:25;;;;;;;1.70;1.00;;;;;;;27.30;31.75;98512.34;4423270;32;20105;-75
2023/08/10 10:58:53;;;;;;;3.08;1.40;;;;;;;29.20;31.70;98511.25;4423629;32;20515;-75
2023/08/10 11:01:20;;;;;;;1.80;1.20;;;;;;;28.96;31.59;98509.53;4424211;32;20550;-75
2023/08/10 11:03:56;;;;;;;2.28;1.30;;;;;;;28.65;31.45;98506.75;4410306;32;20098;-76
2023/08/10 11:06:26;;;;;;;3.17;1.40;;;;;;;29.53;30.38;98511.94;4423819;32;20393;-76
2023/08/10 11:08:55;;;;;;;2.22;1.33;;;;;;;29.87;28.36;98507.06;4423715;32;20150;-75
2023/08/10 11:11:24;;;;;;;2.35;1.17;;;;;;;29.16;28.66;98510.78;4424051;32;20448;-76
2023/08/10 11:13:52;;;;;;;1.98;1.20;;;;;;;27.51;29.83;98509.28;4424159;32;20452;-76
2023/08/10 11:16:19;;;;;;;1.87;1.20;;;;;;;26.66;32.34;98497.78;4423580;32;20139;-77
2023/08/10 11:18:47;;;;;;;2.60;1.27;;;;;;;26.38;34.04;98505.06;4410313;32;20161;-76
2023/08/10 11:21:15;;;;;;;2.15;1.12;;;;;;;26.53;32.86;98499.03;4423968;32;20105;-76
2023/08/10 11:23:42;;;;;;;1.60;1.10;;;;;;;27.74;29.85;98489.16;4424108;32;20239;-76
2023/08/10 11:26:11;;;;;;;2.75;1.27;;;;;;;27.46;31.85;98493.06;4423622;32;20093;-76
2023/08/10 11:28:39;;;;;;;2.05;1.37;;;;;;;27.39;33.23;98498.16;4424050;32;20108;-76
2023/08/10 11:31:07;;;;;;;2.50;1.40;;;;;;;28.37;31.76;98499.16;4423943;32;20123;-76
2023/08/10 11:33:35;;;;;;;2.40;1.30;;;;;;;27.30;32.81;98489.34;4424432;32;20153;-76
2023/08/10 11:36:03;;;;;;;2.53;1.27;;;;;;;28.53;31.99;98487.69;4423610;32;20098;-76
2023/08/10 11:38:42;;;;;;;2.33;1.30;;;;;;;28.91;31.06;98495.91;4423751;32;20151;-76
2023/08/10 11:41:09;;;;;;;2.90;1.23;;;;;;;29.83;31.54;98489.00;4424350;32;20090;-76
2023/08/10 11:43:36;;;;;;;4.10;1.55;;;;;;;28.83;33.02;98499.41;4424090;32;20090;-76